Time;durP1;ratioP1;P1;durP2;ratioP2;P2;SDS_P1;SDS_P2;PMS_P1;PMS_P2;Temp;Humidity;BMP_temperature;BMP_pressure;BME280_temperature;BME280_humidity;BME280_pressure;Samples;Min_cycle;Max_cycle;Signal;HPM_P1;HPM_P2
2021/03/31 00:00:30;;;;;;;29.40;27.50;;;11.10;62.20;;;;;;5095435;28;20485;-78
2021/03/31 00:02:58;;;;;;;28.67;26.87;;;11.10;62.70;;;;;;5095314;28;20962;-78
2021/03/31 00:05:25;;;;;;;30.63;28.30;;;11.00;62.60;;;;;;5095234;28;20455;-78
2021/03/31 00:07:51;;;;;;;28.50;26.40;;;10.90;62.60;;;;;;5095173;28;20532;-78
2021/03/31 00:10:22;;;;;;;29.17;26.97;;;10.90;62.70;;;;;;5095386;28;21012;-78
2021/03/31 00:12:49;;;;;;;28.57;26.53;;;10.90;62.90;;;;;;5095735;28;20954;-78
2021/03/31 00:15:17;;;;;;;29.10;27.20;;;10.90;63.30;;;;;;5095753;28;20480;-78
2021/03/31 00:17:43;;;;;;;29.40;27.40;;;10.80;64.90;;;;;;5094980;28;20505;-78
2021/03/31 00:20:12;;;;;;;29.37;27.30;;;10.70;63.80;;;;;;5095479;28;21065;-79
2021/03/31 00:22:39;;;;;;;30.00;27.80;;;10.70;63.50;;;;;;5095688;28;20517;-78
2021/03/31 00:25:07;;;;;;;30.17;27.77;;;10.70;63.50;;;;;;5095188;28;20449;-78
2021/03/31 00:27:34;;;;;;;29.03;26.67;;;10.60;63.80;;;;;;5095003;28;20449;-78
2021/03/31 00:30:00;;;;;;;28.73;26.63;;;10.60;63.80;;;;;;5094985;28;20484;-78
2021/03/31 00:32:27;;;;;;;28.93;27.03;;;10.60;64.00;;;;;;5094996;28;20247;-78
2021/03/31 00:34:53;;;;;;;29.40;27.37;;;10.50;64.00;;;;;;5094722;28;20483;-78
2021/03/31 00:37:19;;;;;;;28.05;26.02;;;10.50;64.00;;;;;;5094592;28;20453;-78
2021/03/31 00:39:46;;;;;;;27.90;26.20;;;10.40;64.20;;;;;;5095346;28;20243;-78
2021/03/31 00:42:13;;;;;;;27.67;25.95;;;10.40;64.00;;;;;;5094943;28;20210;-78
2021/03/31 00:44:40;;;;;;;28.88;26.80;;;10.40;64.10;;;;;;5094964;28;20698;-78
2021/03/31 00:47:06;;;;;;;30.80;28.40;;;10.30;64.30;;;;;;5094361;28;20191;-78
2021/03/31 00:49:33;;;;;;;29.60;27.63;;;10.40;64.30;;;;;;5094580;28;20222;-78
2021/03/31 00:52:00;;;;;;;29.73;27.63;;;10.20;65.00;;;;;;5094859;28;20203;-78
2021/03/31 00:54:26;;;;;;;30.25;28.20;;;10.10;65.30;;;;;;5094467;28;20587;-78
2021/03/31 00:56:53;;;;;;;29.35;27.25;;;10.10;65.50;;;;;;5093594;28;20198;-78
2021/03/31 00:59:19;;;;;;;29.35;27.35;;;10.10;65.00;;;;;;5094396;28;20255;-78
2021/03/31 01:01:47;;;;;;;30.00;27.85;;;10.10;64.90;;;;;;5093986;28;20199;-78
2021/03/31 01:04:14;;;;;;;30.80;28.00;;;10.10;65.10;;;;;;5094645;28;20198;-78
2021/03/31 01:06:40;;;;;;;29.52;27.20;;;10.00;65.60;;;;;;5093385;28;20214;-78
2021/03/31 01:09:07;;;;;;;28.20;26.25;;;9.90;65.50;;;;;;5094331;28;20243;-77
2021/03/31 01:11:42;;;;;;;29.30;27.20;;;10.00;65.30;;;;;;5094235;28;20758;-78
2021/03/31 01:14:18;;;;;;;29.00;27.02;;;9.90;65.30;;;;;;5094522;28;20306;-78
2021/03/31 01:16:50;;;;;;;29.73;27.73;;;9.90;65.20;;;;;;5095426;28;20205;-77
2021/03/31 01:19:40;;;;;;;30.40;28.10;;;9.90;65.10;;;;;;5096451;28;20223;-78
2021/03/31 01:22:55;;;;;;;29.95;27.75;;;9.90;65.20;;;;;;5055369;28;20199;-78
2021/03/31 01:25:34;;;;;;;30.17;27.95;;;9.80;65.70;;;;;;5095732;28;20202;-77
2021/03/31 01:28:23;;;;;;;29.92;27.85;;;9.80;66.30;;;;;;5097102;28;20203;-77
2021/03/31 01:31:00;;;;;;;29.42;27.02;;;9.70;66.40;;;;;;5094055;28;20309;-78
2021/03/31 01:33:47;;;;;;;28.90;27.20;;;9.60;66.50;;;;;;5093840;28;20207;-78
2021/03/31 01:36:17;;;;;;;29.40;27.40;;;9.60;66.70;;;;;;5093302;28;20205;-77
2021/03/31 01:38:48;;;;;;;29.40;27.38;;;9.60;67.10;;;;;;5093594;28;20199;-78
2021/03/31 01:41:18;;;;;;;30.52;28.13;;;9.60;66.60;;;;;;5093870;28;20199;-77
2021/03/31 01:43:46;;;;;;;30.67;28.65;;;9.70;66.30;;;;;;5093579;28;20202;-78
2021/03/31 01:46:13;;;;;;;30.42;28.13;;;9.60;66.50;;;;;;5093239;28;20199;-78
2021/03/31 01:48:39;;;;;;;29.00;27.20;;;9.60;66.50;;;;;;5093490;28;20240;-78
2021/03/31 01:51:08;;;;;;;30.15;28.35;;;9.60;66.50;;;;;;5093441;28;20219;-78
2021/03/31 01:53:35;;;;;;;30.15;28.10;;;9.50;66.90;;;;;;5093428;28;20727;-78
2021/03/31 01:56:02;;;;;;;29.48;27.48;;;9.40;67.10;;;;;;5092684;28;20268;-78
2021/03/31 01:58:31;;;;;;;30.75;28.25;;;9.40;67.10;;;;;;5093344;28;20210;-78
2021/03/31 02:00:59;;;;;;;30.60;28.60;;;9.40;67.30;;;;;;5092901;28;20226;-77
2021/03/31 02:03:28;;;;;;;29.98;27.67;;;9.40;67.20;;;;;;5093481;28;20581;-77
2021/03/31 02:05:56;;;;;;;28.73;26.58;;;9.40;67.40;;;;;;5092902;28;20622;-77
2021/03/31 02:08:23;;;;;;;29.75;27.60;;;9.20;68.70;;;;;;5093868;28;20199;-78
2021/03/31 02:10:51;;;;;;;30.02;27.83;;;9.20;70.30;;;;;;5093640;28;20697;-78
2021/03/31 02:13:18;;;;;;;29.10;27.10;;;9.10;68.90;;;;;;5100270;28;20195;-78
2021/03/31 02:15:48;;;;;;;28.55;26.58;;;9.10;68.30;;;;;;5110978;28;20222;-78
2021/03/31 02:18:18;;;;;;;29.33;27.38;;;9.20;68.00;;;;;;5102303;28;20308;-78
2021/03/31 02:20:45;;;;;;;29.08;27.17;;;9.10;68.00;;;;;;5092866;28;20320;-78
2021/03/31 02:23:13;;;;;;;29.80;27.60;;;9.00;68.40;;;;;;5092727;28;20264;-78
2021/03/31 02:25:39;;;;;;;30.70;28.70;;;9.00;68.60;;;;;;5092398;28;20214;-77
2021/03/31 02:28:06;;;;;;;29.00;27.00;;;9.00;68.50;;;;;;5093021;28;20564;-78
2021/03/31 02:30:33;;;;;;;28.83;26.95;;;9.00;68.50;;;;;;5092870;28;20229;-78
2021/03/31 02:33:03;;;;;;;30.05;28.05;;;9.00;68.50;;;;;;5092753;28;20248;-78
2021/03/31 02:35:31;;;;;;;31.08;28.35;;;9.00;68.60;;;;;;5092039;28;20222;-78
2021/03/31 02:38:00;;;;;;;29.42;27.27;;;9.00;68.60;;;;;;5092725;28;20202;-78
2021/03/31 02:40:28;;;;;;;30.98;28.48;;;8.90;69.00;;;;;;5092510;28;20225;-78
2021/03/31 02:42:57;;;;;;;31.30;28.58;;;8.80;69.10;;;;;;5092701;28;20203;-77
2021/03/31 02:45:26;;;;;;;30.60;28.20;;;8.90;69.10;;;;;;5092630;28;20656;-77
2021/03/31 02:47:54;;;;;;;31.30;28.63;;;8.90;69.10;;;;;;5092481;28;20660;-78
2021/03/31 02:50:23;;;;;;;32.10;29.40;;;8.90;69.20;;;;;;5092511;28;20219;-78
2021/03/31 02:52:50;;;;;;;30.23;27.90;;;8.80;69.30;;;;;;5093002;28;20341;-78
2021/03/31 02:55:18;;;;;;;28.88;26.98;;;8.80;69.20;;;;;;5092376;28;20229;-77
2021/03/31 02:57:45;;;;;;;30.73;28.25;;;8.70;69.50;;;;;;5091866;28;20190;-78
2021/03/31 03:00:13;;;;;;;30.02;27.83;;;8.70;69.80;;;;;;5092532;28;20306;-77
2021/03/31 03:02:43;;;;;;;30.02;27.67;;;8.60;69.90;;;;;;5091866;28;20203;-78
2021/03/31 03:05:11;;;;;;;30.23;28.00;;;8.60;69.90;;;;;;5092406;28;20199;-78
2021/03/31 03:07:39;;;;;;;30.60;28.35;;;8.60;70.20;;;;;;5091721;28;20245;-77
2021/03/31 03:10:07;;;;;;;31.20;28.80;;;8.60;70.30;;;;;;5092237;28;20230;-77
2021/03/31 03:12:37;;;;;;;31.50;28.85;;;8.60;69.90;;;;;;5092430;28;20199;-78
2021/03/31 03:15:06;;;;;;;31.95;29.25;;;8.60;69.90;;;;;;5091951;28;20219;-77
2021/03/31 03:17:32;;;;;;;29.40;27.30;;;8.60;70.00;;;;;;5091935;28;20242;-77
2021/03/31 03:19:59;;;;;;;29.05;26.95;;;8.60;70.40;;;;;;5094013;28;20225;-78
2021/03/31 03:22:26;;;;;;;29.05;27.10;;;8.50;70.50;;;;;;5104120;28;20244;-77
2021/03/31 03:24:54;;;;;;;29.65;27.55;;;8.50;70.50;;;;;;5096712;28;20723;-77
2021/03/31 03:27:22;;;;;;;28.75;26.95;;;8.50;70.60;;;;;;5095884;28;20264;-77
2021/03/31 03:29:51;;;;;;;30.10;27.85;;;8.50;70.60;;;;;;5096109;28;20565;-77
2021/03/31 03:32:18;;;;;;;28.85;26.85;;;8.50;70.80;;;;;;5096356;28;20669;-77
2021/03/31 03:34:46;;;;;;;30.05;27.52;;;8.40;70.70;;;;;;5096123;28;20214;-78
2021/03/31 03:37:13;;;;;;;29.90;27.45;;;8.40;71.80;;;;;;5095432;28;20252;-77
2021/03/31 03:39:40;;;;;;;30.25;27.98;;;8.40;71.60;;;;;;5095985;28;20584;-78
2021/03/31 03:42:07;;;;;;;31.33;29.15;;;8.40;71.00;;;;;;5095828;28;20195;-77
2021/03/31 03:44:34;;;;;;;30.30;28.00;;;8.40;70.90;;;;;;5096146;28;20191;-77
2021/03/31 03:47:02;;;;;;;34.10;31.45;;;8.40;70.80;;;;;;5095155;28;20195;-78
2021/03/31 03:49:28;;;;;;;29.90;27.50;;;8.40;70.80;;;;;;5095672;28;20237;-77
2021/03/31 03:51:55;;;;;;;29.60;27.50;;;8.40;70.50;;;;;;5095848;28;20194;-77
2021/03/31 03:54:23;;;;;;;30.73;28.15;;;8.40;71.20;;;;;;5095717;28;20215;-77
2021/03/31 03:56:50;;;;;;;29.67;27.38;;;8.30;71.30;;;;;;5094896;28;20228;-78
2021/03/31 03:59:21;;;;;;;36.45;33.90;;;8.20;71.40;;;;;;5095506;28;20216;-78
2021/03/31 04:01:48;;;;;;;33.80;31.42;;;8.30;71.40;;;;;;5095159;28;20199;-77
2021/03/31 04:04:14;;;;;;;30.70;28.55;;;8.30;71.30;;;;;;5095792;28;20286;-77
2021/03/31 04:06:41;;;;;;;29.40;27.10;;;8.20;72.20;;;;;;5095095;28;20195;-77
2021/03/31 04:09:08;;;;;;;31.27;28.83;;;8.20;71.90;;;;;;5095430;28;20215;-77
2021/03/31 04:11:37;;;;;;;32.60;30.40;;;8.30;71.70;;;;;;5095356;28;20195;-78
2021/03/31 04:14:05;;;;;;;33.17;30.20;;;8.30;71.40;;;;;;5095184;28;20210;-78
2021/03/31 04:16:33;;;;;;;30.23;28.02;;;8.30;71.30;;;;;;5094914;28;20613;-78
2021/03/31 04:19:05;;;;;;;30.02;28.00;;;8.30;71.30;;;;;;5095275;28;20321;-78
2021/03/31 04:21:34;;;;;;;31.08;28.55;;;8.30;71.10;;;;;;5095273;28;20195;-79
2021/03/31 04:24:01;;;;;;;31.10;28.70;;;8.30;70.90;;;;;;5095129;28;20202;-78
2021/03/31 04:26:31;;;;;;;32.13;29.75;;;8.20;71.10;;;;;;5094633;28;20298;-77
2021/03/31 04:28:59;;;;;;;33.85;31.45;;;8.20;71.10;;;;;;5095249;28;20216;-78
2021/03/31 04:31:27;;;;;;;30.67;28.48;;;8.20;71.40;;;;;;5094858;28;20199;-77
2021/03/31 04:33:54;;;;;;;31.23;28.88;;;8.20;71.50;;;;;;5094522;28;20565;-78
2021/03/31 04:36:21;;;;;;;34.38;31.55;;;8.20;71.50;;;;;;5094169;28;20256;-77
2021/03/31 04:38:49;;;;;;;31.35;29.00;;;8.20;71.50;;;;;;5094867;28;20205;-77
2021/03/31 04:41:16;;;;;;;30.77;28.58;;;8.10;71.80;;;;;;5095010;28;20206;-78
2021/03/31 04:43:43;;;;;;;30.67;28.42;;;8.10;71.90;;;;;;5094937;28;20203;-77
2021/03/31 04:46:10;;;;;;;32.35;30.00;;;8.10;72.10;;;;;;5094042;28;20653;-77
2021/03/31 04:48:37;;;;;;;30.80;28.25;;;8.10;72.10;;;;;;5094925;28;20649;-78
2021/03/31 04:51:04;;;;;;;31.15;28.95;;;8.20;71.90;;;;;;5094393;28;20219;-78
2021/03/31 04:53:31;;;;;;;32.50;29.83;;;8.20;71.50;;;;;;5094634;28;20199;-77
2021/03/31 04:55:57;;;;;;;33.72;31.60;;;8.20;71.70;;;;;;5094047;28;20226;-77
2021/03/31 04:58:24;;;;;;;31.95;29.75;;;8.20;71.80;;;;;;5094341;28;20201;-77
2021/03/31 05:00:51;;;;;;;32.17;29.98;;;8.10;71.90;;;;;;5094051;28;20228;-78
2021/03/31 05:03:18;;;;;;;32.28;29.90;;;8.10;71.90;;;;;;5094464;28;20224;-78
2021/03/31 05:05:45;;;;;;;31.38;28.73;;;8.10;72.30;;;;;;5094046;28;20607;-78
2021/03/31 05:08:11;;;;;;;32.33;29.88;;;8.10;71.90;;;;;;5094213;28;20203;-78
2021/03/31 05:10:38;;;;;;;30.33;28.13;;;8.20;71.50;;;;;;5094298;28;20219;-78
2021/03/31 05:13:04;;;;;;;33.35;30.80;;;8.30;71.20;;;;;;5094367;28;20264;-77
2021/03/31 05:15:31;;;;;;;32.75;30.30;;;8.30;71.30;;;;;;5095335;28;20241;-78
2021/03/31 05:17:57;;;;;;;30.30;28.00;;;8.20;71.70;;;;;;5100285;28;20200;-78
2021/03/31 05:20:25;;;;;;;30.80;28.15;;;8.30;71.40;;;;;;5094817;28;20222;-77
2021/03/31 05:22:51;;;;;;;32.65;30.15;;;8.40;71.10;;;;;;5095052;28;20217;-77
2021/03/31 05:25:17;;;;;;;30.17;28.05;;;8.40;70.80;;;;;;5094531;28;20664;-77
2021/03/31 05:27:44;;;;;;;29.60;27.50;;;8.40;71.20;;;;;;5093783;28;20198;-78
2021/03/31 05:30:11;;;;;;;30.88;28.42;;;8.30;71.40;;;;;;5094482;28;20219;-77
2021/03/31 05:32:38;;;;;;;30.38;28.23;;;8.30;71.50;;;;;;5093998;28;20694;-77
2021/03/31 05:35:06;;;;;;;31.35;28.95;;;8.30;71.70;;;;;;5093786;28;20215;-78
2021/03/31 05:37:34;;;;;;;32.38;29.48;;;8.40;71.40;;;;;;5093294;28;20580;-77
2021/03/31 05:40:01;;;;;;;31.00;28.42;;;8.50;71.30;;;;;;5093836;28;20211;-78
2021/03/31 05:42:27;;;;;;;33.00;30.40;;;8.50;71.20;;;;;;5094079;28;20664;-78
2021/03/31 05:44:55;;;;;;;31.20;28.80;;;8.50;71.10;;;;;;5094070;28;20251;-77
2021/03/31 05:47:26;;;;;;;33.35;30.10;;;8.50;71.00;;;;;;5093387;28;20202;-77
2021/03/31 05:49:54;;;;;;;32.60;29.77;;;8.60;70.90;;;;;;5094983;28;20219;-77
2021/03/31 05:52:20;;;;;;;31.63;29.13;;;8.70;70.60;;;;;;5105126;28;20720;-78
2021/03/31 05:54:48;;;;;;;31.73;29.40;;;8.80;70.10;;;;;;5104742;28;20219;-78
2021/03/31 05:57:17;;;;;;;32.08;29.60;;;8.80;70.00;;;;;;5105176;28;20199;-78
2021/03/31 05:59:45;;;;;;;33.55;31.05;;;8.80;70.00;;;;;;5104790;28;20230;-78
2021/03/31 06:02:13;;;;;;;33.35;30.40;;;8.90;69.90;;;;;;5104769;28;20202;-78
2021/03/31 06:04:41;;;;;;;31.65;29.15;;;9.00;69.70;;;;;;5105780;28;20195;-78
2021/03/31 06:07:08;;;;;;;32.58;30.00;;;9.00;69.60;;;;;;5105121;28;20199;-78
2021/03/31 06:09:35;;;;;;;34.97;31.17;;;9.10;69.40;;;;;;5105559;28;20700;-78
2021/03/31 06:12:02;;;;;;;32.05;29.52;;;9.20;69.00;;;;;;5100928;28;20199;-79
2021/03/31 06:14:30;;;;;;;31.95;29.25;;;9.40;68.60;;;;;;5092664;28;20202;-79
2021/03/31 06:17:06;;;;;;;42.15;33.70;;;9.50;68.40;;;;;;5093628;28;20199;-78
2021/03/31 06:19:33;;;;;;;34.17;31.20;;;9.50;68.10;;;;;;5094154;28;20221;-77
2021/03/31 06:22:07;;;;;;;32.78;29.73;;;9.70;67.70;;;;;;5093361;28;20206;-77
2021/03/31 06:24:35;;;;;;;31.40;29.10;;;9.80;67.40;;;;;;5092968;28;20286;-77
2021/03/31 06:27:03;;;;;;;32.03;29.20;;;9.90;67.20;;;;;;5092095;28;20659;-78
2021/03/31 06:29:43;;;;;;;33.25;30.73;;;10.10;66.80;;;;;;5092694;28;20215;-77
2021/03/31 06:32:18;;;;;;;34.70;31.50;;;10.20;66.80;;;;;;5092799;28;20199;-77
2021/03/31 06:34:52;;;;;;;37.70;34.30;;;10.30;66.40;;;;;;5092511;28;20214;-78
2021/03/31 06:37:36;;;;;;;44.88;34.80;;;10.50;65.80;;;;;;5092172;28;20191;-77
2021/03/31 06:40:03;;;;;;;33.27;30.53;;;10.60;65.30;;;;;;5092667;28;20215;-78
2021/03/31 06:42:39;;;;;;;34.60;31.30;;;10.80;64.60;;;;;;5092411;28;20454;-77
2021/03/31 06:45:10;;;;;;;33.67;30.17;;;11.10;63.80;;;;;;5092641;28;20195;-78
2021/03/31 06:47:40;;;;;;;37.00;34.30;;;11.30;63.10;;;;;;5092086;28;20231;-77
2021/03/31 06:50:09;;;;;;;32.43;29.93;;;11.40;62.80;;;;;;5092131;28;21051;-78
2021/03/31 06:52:51;;;;;;;34.85;31.50;;;11.50;62.60;;;;;;5092627;28;20537;-78
2021/03/31 06:55:18;;;;;;;33.27;30.80;;;11.50;62.60;;;;;;5091758;28;20255;-78
2021/03/31 06:57:51;;;;;;;36.57;33.27;;;11.70;62.30;;;;;;5091874;28;20822;-78
2021/03/31 07:00:24;;;;;;;34.77;31.50;;;11.80;61.90;;;;;;5092728;28;20997;-78
2021/03/31 07:02:52;;;;;;;35.80;32.80;;;11.90;61.80;;;;;;5092171;28;20471;-78
2021/03/31 07:05:19;;;;;;;34.07;31.37;;;12.00;61.60;;;;;;5098996;28;20540;-78
2021/03/31 07:07:45;;;;;;;36.50;32.83;;;12.10;61.40;;;;;;5092197;28;20449;-78
2021/03/31 07:10:13;;;;;;;39.60;32.47;;;12.30;61.10;;;;;;5094332;28;20473;-78
2021/03/31 07:12:42;;;;;;;33.83;31.10;;;12.40;60.80;;;;;;5101907;28;20871;-77
2021/03/31 07:15:12;;;;;;;35.40;32.10;;;12.50;60.20;;;;;;5096798;28;20989;-78
2021/03/31 07:17:41;;;;;;;51.00;35.80;;;12.50;60.00;;;;;;5091921;28;20449;-77
2021/03/31 07:20:09;;;;;;;35.30;32.60;;;12.70;60.00;;;;;;5092709;28;20500;-77
2021/03/31 07:22:35;;;;;;;39.73;35.67;;;12.70;60.00;;;;;;5092818;28;20606;-78
2021/03/31 07:25:03;;;;;;;39.27;34.97;;;12.80;60.00;;;;;;5092272;28;20528;-78
2021/03/31 07:27:31;;;;;;;36.57;33.50;;;12.90;60.00;;;;;;5091924;28;20463;-78
2021/03/31 07:30:10;;;;;;;37.13;33.93;;;12.90;61.70;;;;;;5092492;28;20469;-78
2021/03/31 07:32:51;;;;;;;37.87;34.47;;;13.00;60.30;;;;;;5092878;28;20806;-78
2021/03/31 07:35:18;;;;;;;39.87;36.07;;;13.10;68.30;;;;;;5092644;28;20476;-78
2021/03/31 07:37:46;;;;;;;40.13;36.50;;;13.20;66.90;;;;;;5091735;28;20449;-77
2021/03/31 07:40:15;;;;;;;41.40;37.50;;;13.20;62.90;;;;;;5092490;28;20473;-78
2021/03/31 07:42:45;;;;;;;43.10;38.70;;;13.30;63.80;;;;;;5092255;28;21029;-78
2021/03/31 07:45:12;;;;;;;36.90;33.90;;;13.20;60.70;;;;;;5092618;28;20453;-77
2021/03/31 07:47:40;;;;;;;37.27;34.27;;;13.40;59.70;;;;;;5091778;28;20460;-78
2021/03/31 07:50:11;;;;;;;41.00;38.07;;;13.50;59.20;;;;;;5091788;28;20530;-78
2021/03/31 07:52:56;;;;;;;37.37;34.50;;;13.60;58.70;;;;;;5091921;28;20590;-77
2021/03/31 07:55:44;;;;;;;39.90;36.07;;;13.80;58.10;;;;;;5091587;28;20519;-77
2021/03/31 07:58:28;;;;;;;45.57;37.03;;;13.80;57.90;;;;;;5091869;28;20452;-78
2021/03/31 08:00:59;;;;;;;40.33;36.20;;;13.90;57.80;;;;;;5091398;28;20477;-78
2021/03/31 08:03:27;;;;;;;40.63;36.03;;;13.90;57.80;;;;;;5091930;28;20514;-77
2021/03/31 08:06:15;;;;;;;41.63;35.67;;;14.10;57.70;;;;;;5091164;28;20453;-77
2021/03/31 08:08:56;;;;;;;38.07;34.53;;;14.20;57.30;;;;;;5094415;28;20543;-77
2021/03/31 08:11:45;;;;;;;37.77;34.80;;;14.30;57.30;;;;;;5095476;28;20459;-78
2021/03/31 08:14:13;;;;;;;36.97;33.73;;;14.30;57.20;;;;;;5095580;28;20445;-77
2021/03/31 08:16:41;;;;;;;38.50;35.37;;;14.40;57.00;;;;;;5094626;28;20868;-78
2021/03/31 08:19:13;;;;;;;36.23;33.13;;;14.50;56.60;;;;;;5095198;28;20472;-78
2021/03/31 08:21:41;;;;;;;38.40;35.40;;;14.60;56.30;;;;;;5095174;28;20830;-78
2021/03/31 08:24:09;;;;;;;36.80;33.60;;;14.70;56.20;;;;;;5095246;28;20457;-77
2021/03/31 08:26:38;;;;;;;37.17;34.40;;;14.80;55.90;;;;;;5094524;28;20457;-78
2021/03/31 08:29:08;;;;;;;45.17;35.80;;;14.90;55.80;;;;;;5094956;28;20505;-78
2021/03/31 08:31:39;;;;;;;44.23;36.97;;;15.00;55.70;;;;;;5095064;28;20481;-78
2021/03/31 08:34:06;;;;;;;37.93;34.73;;;15.10;55.40;;;;;;5094656;28;20453;-78
2021/03/31 08:36:32;;;;;;;37.70;34.43;;;15.20;55.30;;;;;;5094160;28;20561;-78
2021/03/31 08:38:59;;;;;;;45.20;35.53;;;15.40;54.90;;;;;;5094852;28;20528;-78
2021/03/31 08:41:27;;;;;;;36.33;33.13;;;15.50;54.90;;;;;;5095093;28;20453;-78
2021/03/31 08:44:14;;;;;;;38.70;35.00;;;15.50;54.90;;;;;;5095011;28;20778;-78
2021/03/31 08:46:40;;;;;;;37.70;34.50;;;15.60;54.90;;;;;;5094175;28;20452;-78
2021/03/31 08:49:19;;;;;;;39.43;35.13;;;15.70;54.70;;;;;;5094801;28;20465;-78
2021/03/31 08:51:48;;;;;;;38.47;34.90;;;15.80;54.30;;;;;;5094925;28;20452;-78
2021/03/31 08:54:16;;;;;;;39.50;36.27;;;15.90;54.10;;;;;;5094706;28;20449;-78
2021/03/31 08:56:48;;;;;;;38.13;34.73;;;16.00;54.00;;;;;;5094369;28;20477;-78
2021/03/31 08:59:16;;;;;;;39.03;35.43;;;16.00;54.10;;;;;;5095092;28;20484;-78
2021/03/31 09:01:42;;;;;;;36.87;33.83;;;16.10;53.90;;;;;;5094547;28;20448;-78
2021/03/31 09:04:16;;;;;;;36.37;33.87;;;16.20;53.70;;;;;;5094828;28;20476;-78
2021/03/31 09:06:43;;;;;;;38.57;34.83;;;16.30;53.50;;;;;;5104096;28;20456;-80
2021/03/31 09:09:09;;;;;;;37.00;33.70;;;16.40;53.50;;;;;;5097918;28;20568;-78
2021/03/31 09:11:36;;;;;;;37.23;34.60;;;16.50;53.30;;;;;;5094115;28;20455;-78
2021/03/31 09:14:16;;;;;;;36.53;33.87;;;16.70;52.90;;;;;;5094480;28;20452;-78
2021/03/31 09:16:53;;;;;;;38.27;35.30;;;16.80;52.70;;;;;;5095240;28;20903;-77
2021/03/31 09:19:20;;;;;;;36.03;33.10;;;17.00;52.60;;;;;;5094207;28;20476;-78
2021/03/31 09:21:47;;;;;;;37.13;33.80;;;17.10;52.60;;;;;;5094427;28;20807;-77
2021/03/31 09:24:15;;;;;;;36.93;33.93;;;17.10;52.70;;;;;;5094310;28;20463;-78
2021/03/31 09:26:54;;;;;;;35.77;32.33;;;17.30;52.40;;;;;;5093734;28;20449;-78
2021/03/31 09:29:22;;;;;;;36.33;33.20;;;17.50;52.10;;;;;;5094504;28;20876;-77
2021/03/31 09:31:50;;;;;;;37.07;33.43;;;17.60;51.80;;;;;;5094279;28;20461;-78
2021/03/31 09:34:17;;;;;;;41.67;33.17;;;17.70;51.80;;;;;;5094187;28;20464;-78
2021/03/31 09:36:56;;;;;;;41.50;36.90;;;17.80;51.70;;;;;;5093478;28;20488;-78
2021/03/31 09:39:22;;;;;;;43.90;35.73;;;17.80;51.70;;;;;;5093798;28;20480;-78
2021/03/31 09:41:50;;;;;;;36.53;33.20;;;18.10;51.30;;;;;;5094108;28;20938;-79
2021/03/31 09:44:16;;;;;;;36.50;33.57;;;18.10;51.00;;;;;;5093969;28;20808;-79
2021/03/31 09:46:43;;;;;;;36.53;33.47;;;18.20;50.80;;;;;;5093146;28;20466;-79
2021/03/31 09:49:11;;;;;;;36.77;33.83;;;18.40;50.60;;;;;;5093770;28;20483;-79
2021/03/31 09:51:37;;;;;;;37.00;33.97;;;18.50;50.20;;;;;;5093507;28;20449;-79
2021/03/31 09:54:04;;;;;;;37.53;34.43;;;18.50;50.20;;;;;;5093710;28;20453;-79
2021/03/31 09:56:30;;;;;;;35.17;32.37;;;18.70;50.10;;;;;;5092720;28;20477;-78
2021/03/31 09:58:58;;;;;;;36.20;33.30;;;18.60;50.00;;;;;;5093766;28;20544;-79
2021/03/31 10:01:24;;;;;;;38.13;35.20;;;18.60;50.20;;;;;;5095936;28;20497;-78
2021/03/31 10:03:54;;;;;;;38.50;34.97;;;18.80;50.00;;;;;;5099381;28;20453;-79
2021/03/31 10:06:24;;;;;;;40.07;37.30;;;18.90;49.80;;;;;;5099610;28;20449;-78
2021/03/31 10:08:51;;;;;;;35.73;32.53;;;19.00;49.80;;;;;;5102608;28;20453;-79
2021/03/31 10:11:29;;;;;;;38.43;34.93;;;19.10;49.60;;;;;;5101664;28;20475;-79
2021/03/31 10:13:57;;;;;;;37.77;34.33;;;19.20;49.30;;;;;;5098752;28;20453;-79
2021/03/31 10:16:38;;;;;;;36.67;33.40;;;19.10;49.50;;;;;;5098277;28;20527;-78
2021/03/31 10:19:06;;;;;;;37.17;33.77;;;19.10;49.80;;;;;;5100665;28;20477;-79
2021/03/31 10:21:34;;;;;;;34.90;32.23;;;19.30;49.70;;;;;;5100280;28;20834;-78
2021/03/31 10:24:01;;;;;;;37.70;34.60;;;19.40;49.50;;;;;;5099639;28;20445;-79
2021/03/31 10:26:30;;;;;;;36.70;33.33;;;19.50;49.00;;;;;;5102019;28;20934;-78
2021/03/31 10:28:59;;;;;;;36.60;33.30;;;19.60;49.20;;;;;;5101004;28;20453;-78
2021/03/31 10:31:28;;;;;;;35.80;32.93;;;19.60;49.20;;;;;;5098158;28;20488;-78
2021/03/31 10:33:56;;;;;;;38.47;35.17;;;19.70;48.90;;;;;;5096605;28;20445;-78
2021/03/31 10:36:50;;;;;;;37.80;34.67;;;19.80;48.70;;;;;;5095562;28;20520;-78
2021/03/31 10:48:15;;;;;;;38.10;34.73;;;20.20;48.40;;;;;;5092777;28;20428;-79
2021/03/31 10:50:47;;;;;;;34.97;32.10;;;20.50;47.50;;;;;;5092635;28;20518;-79
2021/03/31 10:53:13;;;;;;;37.40;34.27;;;20.50;47.30;;;;;;5092796;28;20485;-79
2021/03/31 10:55:42;;;;;;;36.53;33.40;;;20.70;46.80;;;;;;5092036;28;20513;-78
2021/03/31 10:58:10;;;;;;;37.37;34.13;;;20.70;46.80;;;;;;5093001;28;20459;-79
2021/03/31 11:00:38;;;;;;;37.83;34.40;;;20.90;45.90;;;;;;5095651;28;20497;-79
2021/03/31 11:03:05;;;;;;;39.73;36.60;;;21.00;45.00;;;;;;5104020;28;20465;-79
2021/03/31 11:05:31;;;;;;;36.57;33.77;;;21.10;44.40;;;;;;5092060;28;20458;-79
2021/03/31 11:07:58;;;;;;;37.93;34.97;;;21.20;42.80;;;;;;5092595;28;20494;-79
2021/03/31 11:10:24;;;;;;;38.30;35.07;;;21.20;41.70;;;;;;5093428;28;20473;-79
2021/03/31 11:12:51;;;;;;;38.27;35.07;;;21.30;42.00;;;;;;5093669;28;20851;-79
2021/03/31 11:15:20;;;;;;;35.03;32.33;;;21.40;41.30;;;;;;5098006;28;20481;-79
2021/03/31 11:17:58;;;;;;;37.90;34.70;;;21.50;40.10;;;;;;5094875;28;20979;-79
2021/03/31 11:20:38;;;;;;;36.80;34.00;;;21.70;39.30;;;;;;5094890;28;20468;-79
2021/03/31 11:25:51;;;;;;;38.03;34.93;;;21.70;39.10;;;;;;5092821;28;20525;-79
2021/03/31 11:28:18;;;;;;;37.03;34.23;;;21.70;39.50;;;;;;5092427;28;20444;-79
2021/03/31 11:30:44;;;;;;;38.70;35.50;;;21.90;39.70;;;;;;5092148;28;20560;-79
2021/03/31 11:33:12;;;;;;;37.10;34.30;;;22.10;38.90;;;;;;5092590;28;20449;-79
2021/03/31 11:35:38;;;;;;;38.47;35.30;;;22.20;38.60;;;;;;5091505;28;21032;-79
2021/03/31 11:38:05;;;;;;;37.23;34.30;;;22.10;38.70;;;;;;5092418;28;20445;-82
2021/03/31 11:40:32;;;;;;;37.13;34.30;;;22.30;38.50;;;;;;5092362;28;20476;-79
2021/03/31 11:42:59;;;;;;;36.47;33.50;;;22.50;37.70;;;;;;5095483;28;20506;-79
2021/03/31 11:45:26;;;;;;;36.90;33.80;;;22.50;37.50;;;;;;5095773;28;20997;-79
2021/03/31 11:47:52;;;;;;;37.70;35.00;;;22.60;37.50;;;;;;5095632;28;20452;-79
2021/03/31 11:50:21;;;;;;;38.27;35.30;;;22.70;37.70;;;;;;5095982;28;20504;-79
2021/03/31 11:52:48;;;;;;;38.60;35.53;;;22.70;37.50;;;;;;5095939;28;20452;-79
2021/03/31 11:55:14;;;;;;;40.00;36.67;;;22.90;37.40;;;;;;5095693;28;20477;-79
2021/03/31 11:57:40;;;;;;;38.50;34.50;;;23.00;37.20;;;;;;5095278;28;20456;-80
2021/03/31 12:00:08;;;;;;;38.67;35.40;;;23.20;37.00;;;;;;5096713;28;20525;-79
2021/03/31 12:02:34;;;;;;;38.70;35.20;;;23.30;37.00;;;;;;5095627;28;20457;-79
2021/03/31 12:05:00;;;;;;;38.40;35.30;;;23.30;36.90;;;;;;5097002;28;20953;-80
2021/03/31 12:07:28;;;;;;;40.10;36.57;;;23.30;36.50;;;;;;5097079;28;20453;-79
2021/03/31 12:09:55;;;;;;;37.20;34.20;;;23.30;36.00;;;;;;5096643;28;20982;-79
2021/03/31 12:12:21;;;;;;;37.63;34.73;;;23.40;35.60;;;;;;5097076;28;20559;-79
2021/03/31 12:14:48;;;;;;;37.93;34.87;;;23.40;35.50;;;;;;5097420;28;20452;-79
2021/03/31 12:17:14;;;;;;;39.13;35.97;;;23.40;35.70;;;;;;5096535;28;20476;-79
2021/03/31 12:19:41;;;;;;;37.37;34.37;;;23.50;35.60;;;;;;5097326;28;20465;-79
2021/03/31 12:22:07;;;;;;;41.57;37.07;;;23.60;35.50;;;;;;5097026;28;20460;-79
2021/03/31 12:24:34;;;;;;;38.10;35.07;;;23.70;35.70;;;;;;5096599;28;20535;-79
2021/03/31 12:27:03;;;;;;;38.80;35.53;;;23.80;35.60;;;;;;5112623;28;20469;-79
2021/03/31 12:29:30;;;;;;;38.73;35.63;;;23.90;35.00;;;;;;5112906;28;20889;-79
2021/03/31 12:31:56;;;;;;;37.10;34.30;;;23.80;35.10;;;;;;5113106;28;20505;-79
2021/03/31 12:34:23;;;;;;;37.30;34.30;;;23.90;35.00;;;;;;5113126;28;20446;-79
2021/03/31 12:36:50;;;;;;;38.87;35.77;;;23.80;34.80;;;;;;5113170;28;20480;-79
2021/03/31 12:39:16;;;;;;;37.67;34.67;;;23.70;35.00;;;;;;5113251;28;20481;-79
2021/03/31 12:41:43;;;;;;;39.40;36.20;;;23.80;34.90;;;;;;5113448;28;20488;-79
2021/03/31 12:44:09;;;;;;;39.37;36.17;;;24.00;34.60;;;;;;5113066;28;20513;-79
2021/03/31 12:46:36;;;;;;;40.27;37.17;;;23.90;34.60;;;;;;5112897;28;20441;-79
2021/03/31 12:49:02;;;;;;;38.53;35.53;;;24.10;34.30;;;;;;5113650;28;20451;-79
2021/03/31 12:51:33;;;;;;;39.30;36.20;;;24.10;34.60;;;;;;5113241;28;20471;-79